Aérodrome :
LOGIN :

S'inscrire | Disclaimer

   EN    FR    IT 

 










Légende :    VFR   VFR Marginal   IFR   IFR Intensif   IFR Très Intensif
Visi : 
Plafond : 
>= 8 km
>= 3000ft
5 à 8 km
1000 à 3000 ft
1500m à 5 km
500 à 1000 ft
800 à 1500m
200 à 500 ft
< 800m
< 200 ft
Symboles :   Orages  Brouillard  Fortes neiges  Fortes précipitations  Vent > 20 kt
SIGMETs :   Divers  Orages  Givrage  Turbulence  Onde Orograph.  Cendres Volcan.







- Altitude de l'aérodrome : 13 ft
- Code IATA : LYX
- Voir les cartes d'approche


EGMD - Lydd

DERNIER METAR :
  • 210550Z AUTO 33006KT 5000 BR NCD 08/07 Q1022

METARs EXPIRÉS :
  • 210520Z AUTO 33007KT 5000 BR NCD 07/06 Q1022
  • 210450Z AUTO 33007KT 4500 BR NCD 07/06 Q1022
  • 210420Z AUTO 33006KT 5000 HZ NCD 07/06 Q1023
  • 210350Z AUTO 33008KT 5000 HZ NCD 07/06 Q1023
  • 210320Z AUTO 33006KT 6000 NCD 07/06 Q1023

TAF TAF EGMD
Valide du 21 à 06h jusqu'au 21 à 15h UTC


210504Z 2106/2115 34005KT 7000 NSC
TEMPO 2106/2107 4000 HZ
BECMG 2107/2110 07010KT CAVOK
ATIS : +44 1797 322 422
Pas de NOTAMs connus pour ce terrain.



MET'MAP, la Météo Aéronautique d'un coup d'oeil ! - Copyright ORBIFLY Décembre 2007 - Disclaimer

ORBIFLY MET'MAP TEAM :

Programmation & Développement : Alexandra Zaïnal
Conception & Développement : Baudouin d'Aumeries
Co-Programmation & Développement : Marc-Olivier Méhu
Soutien technique & logistique : Manuel Goepfert

Contact : metmap@orbifly.com




SOURCES & CREDITS :

   NOAA